Accueil
METAR-TAF:

METAR-TAF

Aéroports :

Cassel, Allemagne

latitude: 51-24N, longitude: 009-23E, altitude: 277 m

Observation

Le bulletin a été fait il y a 27 minutes, à 17:20 UTC
Vent 11 kt de sud-ouest
Température 21°C
Humidité 60%
Pression 1011 hPa
Visibilité 10 km ou plus
Nuages épars à une hauteur de 4200 ft

METAR: EDVK 281720Z 22011KT 9999 SCT042 21/13 Q1011

Heure: 19:47 (17:47 UTC)

Prévision

Le bulletin a été fait il y a 47 minutes, à 17:00 UTC
Prévision valable du 28 à 18 UTC au 29 à 03 UTC
Vent 10 kt de sud/sud-ouest
Visibilité 10 km ou plus
Nuages fragmentés à une hauteur de 3000 ft
Evoluant progressivement
du 28 à 18 UTC au 28 à 21 UTC
Vent 5 kt de sud-ouest

TAF: EDVK 281700Z 2818/2903 20010KT 9999 BKN030 BECMG 2818/2821 22005KT

Observations et prévisions météorologiques de plus de 4000 aéroports (messages METAR et TAF).

Les stations disponibles sont représentées par des disques jaunes et rouges sur la carte.

Passer la souris dessus pour voir le nom de la station.

Cliquer dessus pour voir les observations et prévisions météorologiques.

Pour changer de carte: cliquez sur les boutons verts avec une croix noire pour zoomer, sur le bouton vert avec un tiret pour effectuer un zoom arrière, ou sur les flèches vertes pour les cartes adjacentes.


METAR-TAF: